createdAt,value
2022-11-02T00:03:41.643Z,28.50
2022-11-02T00:06:09.624Z,28.42
2022-11-02T00:08:37.552Z,28.85
2022-11-02T00:11:05.571Z,27.33
2022-11-02T00:13:35.101Z,27.02
2022-11-02T00:16:03.656Z,26.35
2022-11-02T00:18:32.180Z,26.13
2022-11-02T00:21:00.015Z,26.75
2022-11-02T00:23:29.013Z,27.35
2022-11-02T00:26:00.674Z,26.25
2022-11-02T00:28:31.174Z,26.95
2022-11-02T00:31:00.373Z,25.70
2022-11-02T00:33:28.409Z,25.40
2022-11-02T00:35:56.666Z,25.95
2022-11-02T00:38:24.674Z,26.65
2022-11-02T00:40:52.578Z,26.30
2022-11-02T00:43:20.610Z,26.23
2022-11-02T00:45:48.461Z,26.55
2022-11-02T00:48:17.705Z,28.70
2022-11-02T00:50:45.635Z,27.40
2022-11-02T00:53:13.684Z,27.58
2022-11-02T00:55:41.467Z,27.50
2022-11-02T00:58:09.672Z,27.00
2022-11-02T01:00:37.566Z,28.10
2022-11-02T01:03:05.456Z,29.58
2022-11-02T01:05:34.599Z,28.88
2022-11-02T01:08:02.941Z,28.85
2022-11-02T01:10:31.069Z,29.92
2022-11-02T01:12:58.964Z,29.05
2022-11-02T01:15:26.767Z,29.90
2022-11-02T01:17:54.761Z,28.05
2022-11-02T01:20:22.591Z,28.55
2022-11-02T01:22:51.942Z,26.98
2022-11-02T01:25:19.852Z,28.42
2022-11-02T01:27:47.750Z,28.63
2022-11-02T01:30:15.798Z,27.40
2022-11-02T01:32:43.943Z,29.70
2022-11-02T01:35:11.655Z,29.50
2022-11-02T01:37:39.742Z,28.50
2022-11-02T01:40:10.115Z,31.38
2022-11-02T01:42:38.134Z,27.75
2022-11-02T01:45:07.774Z,28.02
2022-11-02T01:47:39.129Z,28.73
2022-11-02T01:50:11.459Z,27.97
2022-11-02T01:52:40.420Z,30.70
2022-11-02T01:55:14.792Z,29.48
2022-11-02T01:57:46.852Z,29.92
2022-11-02T02:00:17.385Z,28.35
2022-11-02T02:02:51.432Z,30.90
2022-11-02T02:05:21.628Z,30.27
2022-11-02T02:07:51.480Z,30.23
2022-11-02T02:10:20.903Z,29.38
2022-11-02T02:12:49.342Z,29.08
2022-11-02T02:15:17.307Z,29.77
2022-11-02T02:17:50.140Z,30.33
2022-11-02T02:20:33.436Z,29.00
2022-11-02T02:23:38.494Z,28.65
2022-11-02T02:26:24.520Z,29.15
2022-11-02T02:28:58.104Z,27.42
2022-11-02T02:31:34.139Z,28.27
2022-11-02T02:34:08.472Z,28.05
2022-11-02T02:39:20.330Z,27.75
2022-11-02T02:41:55.839Z,28.35
2022-11-02T02:44:30.695Z,29.13
2022-11-02T02:47:03.183Z,29.02
2022-11-02T02:49:38.923Z,29.05
2022-11-02T02:52:08.349Z,29.52
2022-11-02T02:54:39.811Z,26.85
2022-11-02T02:57:12.073Z,27.23
2022-11-02T02:59:43.828Z,27.80
2022-11-02T03:02:17.077Z,28.50
2022-11-02T03:04:45.252Z,28.13
2022-11-02T03:07:15.903Z,30.23
2022-11-02T03:09:48.130Z,29.08
2022-11-02T03:15:11.231Z,29.27
2022-11-02T03:17:47.616Z,29.77
2022-11-02T03:20:22.966Z,30.08
2022-11-02T03:23:06.892Z,31.15
2022-11-02T03:25:47.159Z,29.80
2022-11-02T03:28:20.168Z,30.52
2022-11-02T03:30:55.912Z,30.40
2022-11-02T03:33:30.366Z,30.38
2022-11-02T03:36:06.599Z,29.75
2022-11-02T03:38:43.236Z,29.83
2022-11-02T03:41:12.711Z,28.92
2022-11-02T03:43:42.851Z,29.60
2022-11-02T03:46:14.484Z,30.65
2022-11-02T03:48:45.843Z,29.97
2022-11-02T03:51:16.789Z,30.30
2022-11-02T03:53:50.389Z,31.00
2022-11-02T03:56:22.928Z,31.08
2022-11-02T03:58:50.880Z,31.10
2022-11-02T04:01:21.737Z,30.30
2022-11-02T04:03:49.702Z,32.78
2022-11-02T04:06:18.184Z,34.05
2022-11-02T04:08:48.150Z,33.42
2022-11-02T04:11:34.848Z,33.13
2022-11-02T04:14:20.557Z,31.60
2022-11-02T04:16:49.747Z,32.47
2022-11-02T04:19:28.875Z,33.97
2022-11-02T04:22:14.916Z,30.65
2022-11-02T04:25:00.898Z,30.83
2022-11-02T04:27:28.788Z,29.27
2022-11-02T04:29:56.827Z,29.25
2022-11-02T04:32:40.042Z,31.08
2022-11-02T04:35:09.320Z,28.25
2022-11-02T04:37:58.061Z,29.52
2022-11-02T04:40:26.328Z,28.00
2022-11-02T04:42:54.618Z,26.98
2022-11-02T04:45:22.349Z,26.92
2022-11-02T04:47:51.863Z,28.50
2022-11-02T04:50:19.561Z,26.70
2022-11-02T04:52:47.470Z,27.55
2022-11-02T04:55:15.613Z,27.90
2022-11-02T04:57:46.427Z,29.90
2022-11-02T05:00:15.671Z,29.33
2022-11-02T05:02:43.870Z,29.38
2022-11-02T05:05:13.008Z,30.42
2022-11-02T05:07:40.943Z,28.85
2022-11-02T05:10:09.314Z,29.17
2022-11-02T05:12:37.903Z,27.75
2022-11-02T05:15:06.538Z,27.92
2022-11-02T05:17:34.551Z,30.15
2022-11-02T05:20:02.734Z,29.40
2022-11-02T05:22:32.894Z,28.10
2022-11-02T05:25:00.795Z,28.98
2022-11-02T05:27:29.039Z,27.52
2022-11-02T05:29:56.806Z,30.20
2022-11-02T05:32:24.851Z,28.10
2022-11-02T05:34:52.606Z,29.40
2022-11-02T05:37:20.469Z,28.20
2022-11-02T05:39:50.677Z,27.77
2022-11-02T05:42:18.791Z,28.75
2022-11-02T05:44:46.519Z,27.85
2022-11-02T05:47:14.550Z,29.27
2022-11-02T05:49:42.328Z,31.20
2022-11-02T05:52:10.273Z,30.45
2022-11-02T05:54:38.174Z,29.88
2022-11-02T05:57:07.589Z,31.73
2022-11-02T05:59:35.308Z,30.33
2022-11-02T06:02:03.503Z,30.08
2022-11-02T06:04:31.396Z,30.65
2022-11-02T06:06:59.288Z,29.92
2022-11-02T06:09:27.582Z,29.10
2022-11-02T06:11:56.848Z,28.90
2022-11-02T06:14:25.900Z,28.20
2022-11-02T06:16:53.890Z,30.75
2022-11-02T06:19:21.697Z,32.50
2022-11-02T06:21:49.590Z,31.38
2022-11-02T06:24:17.460Z,32.25
2022-11-02T06:26:46.804Z,32.55
2022-11-02T06:29:14.967Z,32.22
2022-11-02T06:31:44.588Z,32.22
2022-11-02T06:34:12.316Z,32.00
2022-11-02T06:36:40.327Z,32.50
2022-11-02T06:39:08.144Z,30.45
2022-11-02T06:41:36.052Z,31.92
2022-11-02T06:44:03.877Z,31.75
2022-11-02T06:46:32.327Z,32.28
2022-11-02T06:49:01.533Z,31.05
2022-11-02T06:51:29.465Z,31.67
2022-11-02T06:53:57.355Z,30.40
2022-11-02T06:56:25.227Z,30.85
2022-11-02T06:58:53.109Z,31.45
2022-11-02T07:01:21.429Z,32.03
2022-11-02T07:03:49.211Z,31.17
2022-11-02T07:06:18.416Z,30.05
2022-11-02T07:08:46.354Z,30.67
2022-11-02T07:11:15.950Z,31.00
2022-11-02T07:13:43.887Z,30.52
2022-11-02T07:16:12.194Z,31.55
2022-11-02T07:18:39.931Z,31.25
2022-11-02T07:21:10.521Z,30.25
2022-11-02T07:23:39.992Z,32.85
2022-11-02T07:26:08.016Z,31.30
2022-11-02T07:28:36.822Z,34.08
2022-11-02T07:31:05.360Z,31.55
2022-11-02T07:33:33.339Z,32.22
2022-11-02T07:36:03.767Z,32.05
2022-11-02T07:38:31.988Z,33.58
2022-11-02T07:41:01.314Z,31.40
2022-11-02T07:43:29.112Z,31.80
2022-11-02T07:45:57.222Z,28.48
2022-11-02T07:48:24.964Z,28.92
2022-11-02T07:50:52.886Z,30.25
2022-11-02T07:53:20.929Z,26.65
2022-11-02T07:55:48.804Z,24.85
2022-11-02T07:58:17.967Z,30.27
2022-11-02T08:00:46.362Z,27.48
2022-11-02T08:03:14.769Z,22.45
2022-11-02T08:05:43.888Z,21.42
2022-11-02T08:08:14.153Z,22.92
2022-11-02T08:10:42.695Z,20.75
2022-11-02T08:13:12.315Z,20.73
2022-11-02T08:15:41.658Z,19.08
2022-11-02T08:18:14.669Z,19.55
2022-11-02T08:20:42.936Z,18.88
2022-11-02T08:23:11.778Z,56.20
2022-11-02T08:25:40.483Z,19.52
2022-11-02T08:28:13.066Z,18.58
2022-11-02T08:33:13.492Z,18.17
2022-11-02T08:35:41.530Z,19.25
2022-11-02T08:38:10.655Z,18.98
2022-11-02T08:40:38.868Z,19.25
2022-11-02T08:43:08.996Z,19.10
2022-11-02T08:46:12.700Z,18.13
2022-11-02T08:48:28.609Z,17.55
2022-11-02T08:50:58.496Z,15.80
2022-11-02T08:53:26.697Z,15.85
2022-11-02T08:55:54.589Z,14.90
2022-11-02T08:58:22.719Z,14.82
2022-11-02T09:00:53.830Z,15.40
2022-11-02T09:03:27.005Z,12.93
2022-11-02T09:06:00.741Z,14.52
2022-11-02T09:08:30.246Z,14.90
2022-11-02T09:11:00.653Z,14.27
2022-11-02T09:13:28.931Z,14.27
2022-11-02T09:15:59.317Z,15.40
2022-11-02T09:18:27.566Z,15.25
2022-11-02T09:20:55.305Z,14.40
2022-11-02T09:23:24.992Z,14.35
2022-11-02T09:25:53.583Z,16.63
2022-11-02T09:28:21.573Z,15.95
2022-11-02T09:30:49.501Z,16.17
2022-11-02T09:33:17.639Z,16.08
2022-11-02T09:35:48.094Z,15.50
2022-11-02T09:38:18.283Z,16.77
2022-11-02T09:40:54.563Z,14.48
2022-11-02T09:43:32.828Z,14.13
2022-11-02T09:46:05.483Z,13.18
2022-11-02T09:48:37.503Z,13.27
2022-11-02T09:51:09.805Z,11.95
2022-11-02T09:53:48.611Z,11.73
2022-11-02T09:56:20.465Z,13.10
2022-11-02T09:58:54.362Z,11.27
2022-11-02T10:01:43.160Z,10.30
2022-11-02T10:04:32.020Z,8.75
2022-11-02T10:07:07.863Z,9.27
2022-11-02T10:09:44.205Z,9.68
2022-11-02T10:12:17.875Z,8.32
2022-11-02T10:14:57.123Z,8.07
2022-11-02T10:17:28.299Z,8.13
2022-11-02T10:19:58.731Z,7.13
2022-11-02T10:22:29.827Z,7.95
2022-11-02T10:25:01.327Z,6.47
2022-11-02T10:27:34.179Z,7.73
2022-11-02T10:30:05.614Z,7.35
2022-11-02T10:32:36.257Z,5.72
2022-11-02T10:38:14.795Z,7.32
2022-11-02T10:40:59.591Z,6.28
2022-11-02T10:43:45.227Z,5.30
2022-11-02T10:46:30.804Z,5.03
2022-11-02T10:51:33.615Z,6.25
2022-11-02T10:54:01.474Z,6.82
2022-11-02T10:56:32.732Z,4.50
2022-11-02T10:59:09.801Z,5.00
2022-11-02T11:01:38.139Z,4.90
2022-11-02T11:04:09.033Z,4.82
2022-11-02T11:06:38.761Z,3.30
2022-11-02T11:09:16.206Z,3.58
2022-11-02T11:11:54.701Z,4.18
2022-11-02T11:20:07.614Z,4.25
2022-11-02T11:22:37.813Z,4.65
2022-11-02T11:25:27.152Z,4.65
2022-11-02T11:27:57.773Z,3.92
2022-11-02T11:33:23.050Z,3.70
2022-11-02T11:35:51.896Z,5.15
2022-11-02T11:38:23.096Z,4.70
2022-11-02T11:40:54.681Z,4.85
2022-11-02T11:46:05.822Z,3.60
2022-11-02T11:48:39.006Z,4.50
2022-11-02T11:51:26.445Z,4.05
2022-11-02T11:54:17.874Z,4.10
2022-11-02T11:56:46.323Z,4.20
2022-11-02T11:59:22.013Z,5.03
2022-11-02T12:01:54.317Z,4.53
2022-11-02T12:04:30.930Z,4.10
2022-11-02T12:07:13.854Z,3.35
2022-11-02T12:09:48.113Z,4.07
2022-11-02T12:12:26.167Z,4.07
2022-11-02T12:15:06.461Z,3.30
2022-11-02T12:17:49.304Z,3.17
2022-11-02T12:20:28.410Z,3.15
2022-11-02T12:23:08.840Z,4.20
2022-11-02T12:25:46.345Z,5.53
2022-11-02T12:28:27.330Z,5.82
2022-11-02T12:31:03.472Z,4.05
2022-11-02T12:33:45.482Z,3.95
2022-11-02T12:36:26.371Z,4.22
2022-11-02T12:39:03.454Z,5.82
2022-11-02T12:42:11.392Z,4.80
2022-11-02T12:45:02.845Z,4.65
2022-11-02T12:47:44.125Z,14.18
2022-11-02T12:50:22.529Z,5.38
2022-11-02T12:53:00.498Z,5.15
2022-11-02T12:55:38.185Z,4.57
2022-11-02T12:58:14.385Z,4.20
2022-11-02T13:00:45.787Z,36.88
2022-11-02T13:03:27.755Z,3.88
2022-11-02T13:06:06.328Z,4.38
2022-11-02T13:08:40.224Z,4.88
2022-11-02T13:11:15.495Z,31.25
2022-11-02T13:13:47.672Z,49.58
2022-11-02T13:16:17.795Z,5.00
2022-11-02T13:18:50.501Z,4.90
2022-11-02T13:21:24.767Z,5.10
2022-11-02T13:23:57.221Z,5.82
2022-11-02T13:26:30.068Z,5.63
2022-11-02T13:29:03.953Z,7.53
2022-11-02T13:31:36.835Z,7.40
2022-11-02T13:34:11.165Z,5.60
2022-11-02T13:36:40.930Z,5.45
2022-11-02T13:39:15.196Z,5.97
2022-11-02T13:42:04.136Z,6.25
2022-11-02T13:44:55.394Z,5.32
2022-11-02T13:47:43.449Z,5.95
2022-11-02T13:50:16.260Z,5.55
2022-11-02T13:52:50.110Z,6.45
2022-11-02T13:55:21.379Z,6.30
2022-11-02T13:57:54.131Z,6.65
2022-11-02T14:00:30.635Z,6.63
2022-11-02T14:03:04.883Z,6.55
2022-11-02T14:05:36.607Z,6.50
2022-11-02T14:08:08.912Z,6.35
2022-11-02T14:10:39.674Z,6.57
2022-11-02T14:13:13.988Z,6.25
2022-11-02T14:15:43.280Z,6.55
2022-11-02T14:18:14.460Z,5.82
2022-11-02T14:20:44.007Z,6.28
2022-11-02T14:23:39.576Z,6.47
2022-11-02T14:26:34.429Z,6.32
2022-11-02T14:29:26.607Z,5.95
2022-11-02T14:32:02.352Z,6.72
2022-11-02T14:34:55.061Z,7.18
2022-11-02T14:37:39.532Z,7.53
2022-11-02T14:40:21.294Z,12.60
2022-11-02T14:43:34.209Z,15.23
2022-11-02T14:46:11.057Z,20.95
2022-11-02T14:48:48.282Z,16.23
2022-11-02T14:51:21.054Z,15.98
2022-11-02T14:53:51.092Z,14.48
2022-11-02T14:56:20.383Z,16.10
2022-11-02T14:58:53.265Z,14.52
2022-11-02T15:01:22.091Z,20.75
2022-11-02T15:03:51.348Z,18.58
2022-11-02T15:06:23.748Z,11.85
2022-11-02T15:08:55.615Z,15.75
2022-11-02T15:11:48.145Z,14.30
2022-11-02T15:14:54.942Z,14.50
2022-11-02T15:17:55.390Z,16.33
2022-11-02T15:20:29.742Z,16.00
2022-11-02T15:23:29.873Z,17.77
2022-11-02T15:26:00.067Z,16.95
2022-11-02T15:28:33.517Z,16.50
2022-11-02T15:31:07.085Z,15.52
2022-11-02T15:33:37.805Z,16.17
2022-11-02T15:36:09.390Z,17.23
2022-11-02T15:38:40.219Z,15.37
2022-11-02T15:41:20.784Z,15.35
2022-11-02T15:44:11.792Z,13.85
2022-11-02T15:46:53.434Z,14.15
2022-11-02T15:49:36.466Z,13.48
2022-11-02T15:52:16.329Z,14.75
2022-11-02T15:55:07.380Z,15.65
2022-11-02T15:57:44.776Z,15.13
2022-11-02T16:00:19.958Z,15.52
2022-11-02T16:02:50.765Z,14.60
2022-11-02T16:05:23.439Z,13.90
2022-11-02T16:08:10.525Z,14.07
2022-11-02T16:10:39.109Z,12.98
2022-11-02T16:13:17.202Z,13.02
2022-11-02T16:15:48.760Z,13.10
2022-11-02T16:18:24.853Z,13.95
2022-11-02T16:20:54.891Z,15.40
2022-11-02T16:23:26.447Z,19.90
2022-11-02T16:25:57.096Z,20.83
2022-11-02T16:28:27.293Z,24.40
2022-11-02T16:31:10.915Z,22.42
2022-11-02T16:33:46.366Z,23.88
2022-11-02T16:36:16.568Z,15.95
2022-11-02T16:38:48.912Z,14.20
2022-11-02T16:41:18.428Z,14.05
2022-11-02T16:43:49.636Z,12.30
2022-11-02T16:46:19.006Z,11.93
2022-11-02T16:49:03.603Z,11.10
2022-11-02T16:51:31.548Z,11.27
2022-11-02T16:54:20.807Z,10.85
2022-11-02T16:56:51.191Z,9.43
2022-11-02T16:59:21.282Z,9.73
2022-11-02T17:01:50.728Z,10.95
2022-11-02T17:04:22.809Z,8.85
2022-11-02T17:06:53.986Z,9.25
2022-11-02T17:09:28.139Z,9.98
2022-11-02T17:11:58.769Z,8.90
2022-11-02T17:14:28.843Z,8.80
2022-11-02T17:17:04.863Z,9.13
2022-11-02T17:19:47.969Z,9.65
2022-11-02T17:22:23.760Z,9.73
2022-11-02T17:25:05.485Z,8.93
2022-11-02T17:27:39.118Z,9.55
2022-11-02T17:30:44.384Z,12.35
2022-11-02T17:33:25.784Z,9.30
2022-11-02T17:35:55.852Z,9.23
2022-11-02T17:38:26.993Z,9.40
2022-11-02T17:40:56.120Z,9.55
2022-11-02T17:43:23.792Z,10.00
2022-11-02T17:45:56.283Z,11.18
2022-11-02T17:48:28.388Z,10.40
2022-11-02T17:53:25.356Z,10.90
2022-11-02T17:55:54.371Z,10.13
2022-11-02T17:58:22.109Z,11.07
2022-11-02T18:00:53.688Z,9.48
2022-11-02T18:03:25.368Z,9.73
2022-11-02T18:05:59.831Z,10.30
2022-11-02T18:08:28.183Z,10.40
2022-11-02T18:10:56.709Z,10.57
2022-11-02T18:13:25.267Z,9.88
2022-11-02T18:15:53.215Z,10.93
2022-11-02T18:18:21.318Z,10.02
2022-11-02T18:20:49.320Z,12.77
2022-11-02T18:23:19.845Z,11.80
2022-11-02T18:25:48.112Z,10.50
2022-11-02T18:28:15.869Z,11.65
2022-11-02T18:30:45.001Z,10.73
2022-11-02T18:33:14.024Z,12.20
2022-11-02T18:35:44.279Z,11.57
2022-11-02T18:38:12.685Z,11.80
2022-11-02T18:40:42.294Z,11.25
2022-11-02T18:43:10.258Z,13.00
2022-11-02T18:45:38.472Z,13.10
2022-11-02T18:48:07.147Z,12.60
2022-11-02T18:50:35.336Z,12.00
2022-11-02T18:53:03.040Z,11.15
2022-11-02T18:55:31.352Z,12.85
2022-11-02T18:58:00.395Z,12.82
2022-11-02T19:00:28.389Z,11.85
2022-11-02T19:02:56.307Z,12.45
2022-11-02T19:05:42.135Z,12.60
2022-11-02T19:08:28.561Z,12.70
2022-11-02T19:10:56.593Z,13.25
2022-11-02T19:13:26.576Z,11.73
2022-11-02T19:15:54.603Z,12.38
2022-11-02T19:18:22.379Z,12.15
2022-11-02T19:20:50.560Z,12.15
2022-11-02T19:23:18.247Z,13.00
2022-11-02T19:25:51.302Z,12.15
2022-11-02T19:28:19.321Z,12.88
2022-11-02T19:30:48.621Z,12.75
2022-11-02T19:33:16.319Z,12.73
2022-11-02T19:35:44.638Z,13.32
2022-11-02T19:38:12.323Z,12.93
2022-11-02T19:40:40.264Z,12.57
2022-11-02T19:43:08.522Z,13.40
2022-11-02T19:45:36.676Z,13.18
2022-11-02T19:48:06.131Z,13.05
2022-11-02T19:50:34.544Z,13.30
2022-11-02T19:53:02.241Z,12.50
2022-11-02T19:55:30.224Z,13.02
2022-11-02T19:57:58.109Z,12.00
2022-11-02T20:00:26.268Z,12.45
2022-11-02T20:02:54.016Z,12.18
2022-11-02T20:05:23.552Z,12.15
2022-11-02T20:07:52.340Z,11.75
2022-11-02T20:10:20.322Z,12.88
2022-11-02T20:12:48.119Z,12.52
2022-11-02T20:15:16.124Z,12.90
2022-11-02T20:18:05.496Z,12.93
2022-11-02T20:20:33.304Z,11.63
2022-11-02T20:23:01.338Z,12.20
2022-11-02T20:25:29.384Z,11.13
2022-11-02T20:27:57.505Z,12.15
2022-11-02T20:30:25.466Z,9.90
2022-11-02T20:32:53.139Z,11.70
2022-11-02T20:35:25.437Z,9.20
2022-11-02T20:37:54.813Z,11.35
2022-11-02T20:40:23.854Z,9.88
2022-11-02T20:42:51.658Z,10.15
2022-11-02T20:45:19.686Z,11.60
2022-11-02T20:47:47.463Z,11.50
2022-11-02T20:50:16.855Z,11.30
2022-11-02T20:52:46.635Z,10.00
2022-11-02T20:55:16.377Z,10.68
2022-11-02T20:57:44.060Z,10.52
2022-11-02T21:00:14.113Z,10.82
2022-11-02T21:02:46.115Z,10.80
2022-11-02T21:05:14.679Z,10.13
2022-11-02T21:07:42.457Z,10.00
2022-11-02T21:10:11.404Z,9.98
2022-11-02T21:12:58.284Z,8.60
2022-11-02T21:15:26.375Z,10.43
2022-11-02T21:17:54.479Z,9.73
2022-11-02T21:20:34.654Z,9.43
2022-11-02T21:23:03.714Z,9.95
2022-11-02T21:25:33.144Z,9.27
2022-11-02T21:28:02.176Z,10.25
2022-11-02T21:30:31.106Z,8.45
2022-11-02T21:32:58.874Z,9.52
2022-11-02T21:35:26.888Z,9.40
2022-11-02T21:38:01.259Z,9.40
2022-11-02T21:40:31.875Z,8.88
2022-11-02T21:43:00.655Z,9.98
2022-11-02T21:45:34.845Z,8.40
2022-11-02T21:48:05.732Z,9.13
2022-11-02T21:50:33.849Z,9.27
2022-11-02T21:53:01.516Z,9.32
2022-11-02T21:55:29.975Z,8.77
2022-11-02T21:57:57.668Z,9.05
2022-11-02T22:00:45.960Z,8.30
2022-11-02T22:03:14.387Z,8.77
2022-11-02T22:05:59.437Z,9.32
2022-11-02T22:08:39.406Z,9.50
2022-11-02T22:11:08.886Z,10.15
2022-11-02T22:13:37.372Z,9.95
2022-11-02T22:16:14.745Z,10.05
2022-11-02T22:18:45.663Z,10.65
2022-11-02T22:21:15.160Z,10.13
2022-11-02T22:23:44.924Z,10.38
2022-11-02T22:26:15.723Z,10.63
2022-11-02T22:28:45.034Z,9.98
2022-11-02T22:31:15.568Z,10.55
2022-11-02T22:33:45.250Z,12.05
2022-11-02T22:36:16.208Z,10.90
2022-11-02T22:38:51.483Z,10.43
2022-11-02T22:41:21.816Z,10.43
2022-11-02T22:43:51.299Z,11.18
2022-11-02T22:46:19.597Z,11.68
2022-11-02T22:48:48.889Z,10.75
2022-11-02T22:51:19.008Z,11.60
2022-11-02T22:53:46.672Z,12.07
2022-11-02T22:56:15.956Z,11.38
2022-11-02T22:58:46.552Z,11.15
2022-11-02T23:01:18.839Z,11.27
2022-11-02T23:03:49.226Z,10.63
2022-11-02T23:06:18.423Z,11.07
2022-11-02T23:08:46.840Z,11.57
2022-11-02T23:11:22.695Z,10.38
2022-11-02T23:13:53.319Z,11.43
2022-11-02T23:16:24.121Z,11.20
2022-11-02T23:19:13.355Z,10.75
2022-11-02T23:21:43.522Z,11.55
2022-11-02T23:24:29.813Z,10.57
2022-11-02T23:26:58.508Z,10.40
2022-11-02T23:29:43.731Z,11.02
2022-11-02T23:32:28.049Z,10.30
2022-11-02T23:35:17.702Z,10.75
2022-11-02T23:37:47.275Z,10.52
2022-11-02T23:40:16.532Z,10.95
2022-11-02T23:42:44.787Z,10.32
2022-11-02T23:45:12.947Z,10.57
2022-11-02T23:48:01.001Z,9.70
2022-11-02T23:50:50.405Z,10.43
2022-11-02T23:53:38.504Z,10.30
2022-11-02T23:56:25.366Z,10.88
2022-11-02T23:59:07.049Z,11.05
